Time;durP1;ratioP1;P1;durP2;ratioP2;P2;SDS_P1;SDS_P2;PMS_P1;PMS_P2;Temp;Humidity;BMP_temperature;BMP_pressure;BME280_temperature;BME280_humidity;BME280_pressure;Samples;Min_cycle;Max_cycle;Signal;HPM_P1;HPM_P2
2021/05/11 00:02:09;;;;;;;4.18;1.75;;;;;;;;;;143734;575;47018;-83
2021/05/11 00:04:36;;;;;;;4.47;1.98;;;;;;;;;;143731;597;47022;-84
2021/05/11 00:07:04;;;;;;;3.20;1.75;;;;;;;;;;143732;587;46020;-84
2021/05/11 00:09:30;;;;;;;5.55;2.00;;;;;;;;;;143733;647;46022;-85
2021/05/11 00:11:57;;;;;;;7.30;2.00;;;;;;;;;;143734;596;46013;-85
2021/05/11 00:14:24;;;;;;;5.93;1.75;;;;;;;;;;143732;580;47020;-84
2021/05/11 00:16:51;;;;;;;8.73;1.60;;;;;;;;;;143732;588;46010;-83
2021/05/11 00:19:18;;;;;;;6.85;2.05;;;;;;;;;;143734;696;46039;-85
2021/05/11 00:21:44;;;;;;;4.78;1.80;;;;;;;;;;143734;702;46010;-84
2021/05/11 00:24:12;;;;;;;4.72;2.00;;;;;;;;;;143731;571;47022;-83
2021/05/11 00:26:39;;;;;;;2.75;1.80;;;;;;;;;;143733;576;46010;-84
2021/05/11 00:29:06;;;;;;;6.82;2.28;;;;;;;;;;143733;706;47020;-84
2021/05/11 00:31:33;;;;;;;9.88;1.77;;;;;;;;;;143733;578;46010;-84
2021/05/11 00:33:59;;;;;;;7.30;2.15;;;;;;;;;;143733;613;46014;-84
2021/05/11 00:36:26;;;;;;;4.43;1.98;;;;;;;;;;143733;606;46020;-84
2021/05/11 00:38:53;;;;;;;9.40;2.03;;;;;;;;;;143731;607;47020;-84
2021/05/11 00:41:19;;;;;;;11.95;1.95;;;;;;;;;;143735;597;46018;-84
2021/05/11 00:43:47;;;;;;;1.90;1.15;;;;;;;;;;143732;582;46022;-85
2021/05/11 00:46:14;;;;;;;3.80;1.55;;;;;;;;;;143730;659;46010;-84
2021/05/11 00:48:41;;;;;;;6.57;2.00;;;;;;;;;;143732;625;47020;-83
2021/05/11 00:51:09;;;;;;;8.98;1.65;;;;;;;;;;143734;707;46020;-83
2021/05/11 00:53:38;;;;;;;6.43;1.80;;;;;;;;;;143731;563;47020;-84
2021/05/11 00:56:06;;;;;;;2.42;1.87;;;;;;;;;;143730;585;46011;-84
2021/05/11 00:58:33;;;;;;;3.50;1.95;;;;;;;;;;143734;604;46047;-83
2021/05/11 01:01:00;;;;;;;7.47;2.25;;;;;;;;;;143734;656;46010;-84
2021/05/11 01:03:27;;;;;;;13.25;2.25;;;;;;;;;;143731;579;46013;-84
2021/05/11 01:05:54;;;;;;;3.22;2.00;;;;;;;;;;143731;587;46010;-83
2021/05/11 01:08:20;;;;;;;3.83;1.95;;;;;;;;;;143733;569;47020;-84
2021/05/11 01:10:47;;;;;;;3.75;2.20;;;;;;;;;;143734;729;46011;-84
2021/05/11 01:13:13;;;;;;;3.97;2.05;;;;;;;;;;143733;584;46020;-84
2021/05/11 01:15:42;;;;;;;5.60;1.73;;;;;;;;;;143731;587;46010;-84
2021/05/11 01:18:13;;;;;;;5.85;2.12;;;;;;;;;;143732;608;47021;-83
2021/05/11 01:20:43;;;;;;;7.40;2.60;;;;;;;;;;143732;626;46010;-84
2021/05/11 01:26:07;;;;;;;10.48;1.55;;;;;;;;;;143733;707;46021;-83
2021/05/11 01:28:52;;;;;;;4.95;2.28;;;;;;;;;;143734;601;46020;-83
2021/05/11 01:31:45;;;;;;;11.63;2.25;;;;;;;;;;143733;615;47010;-82
2021/05/11 01:48:24;;;;;;;3.62;1.62;;;;;;;;;;143730;608;46011;-83
2021/05/11 02:24:22;;;;;;;3.95;1.70;;;;;;;;;;143735;665;46013;-83
2021/05/11 02:26:49;;;;;;;4.78;1.62;;;;;;;;;;143734;691;46010;-85
2021/05/11 02:29:15;;;;;;;5.07;1.60;;;;;;;;;;143730;593;47022;-83
2021/05/11 02:31:42;;;;;;;3.45;1.75;;;;;;;;;;143732;567;46010;-84
2021/05/11 02:34:08;;;;;;;4.70;1.90;;;;;;;;;;143734;564;46012;-83
2021/05/11 02:36:35;;;;;;;3.53;1.67;;;;;;;;;;143734;664;46010;-84
2021/05/11 02:39:01;;;;;;;6.40;1.77;;;;;;;;;;143735;629;46021;-84
2021/05/11 02:41:28;;;;;;;9.48;1.92;;;;;;;;;;143730;582;46010;-83
2021/05/11 02:43:56;;;;;;;6.82;2.00;;;;;;;;;;143731;691;47020;-84
2021/05/11 02:46:23;;;;;;;8.70;1.80;;;;;;;;;;143734;628;46010;-84
2021/05/11 02:48:50;;;;;;;6.85;2.08;;;;;;;;;;143732;577;47020;-84
2021/05/11 02:51:18;;;;;;;6.40;2.22;;;;;;;;;;143733;701;46010;-83
2021/05/11 02:53:45;;;;;;;7.90;2.00;;;;;;;;;;143731;570;47020;-83
2021/05/11 02:56:12;;;;;;;2.67;1.87;;;;;;;;;;143734;583;46010;-83
2021/05/11 02:58:39;;;;;;;2.40;1.73;;;;;;;;;;143731;683;47020;-84
2021/05/11 03:01:05;;;;;;;4.78;2.65;;;;;;;;;;143734;651;46020;-84
2021/05/11 03:03:32;;;;;;;4.15;2.10;;;;;;;;;;143731;569;47020;-85
2021/05/11 03:05:59;;;;;;;10.88;2.20;;;;;;;;;;143733;697;46010;-85
2021/05/11 03:08:26;;;;;;;4.12;2.10;;;;;;;;;;143733;597;46022;-84
2021/05/11 03:10:52;;;;;;;5.30;2.30;;;;;;;;;;143731;564;46021;-84
2021/05/11 03:13:19;;;;;;;6.55;2.28;;;;;;;;;;143734;588;46020;-85
2021/05/11 03:15:45;;;;;;;4.55;2.10;;;;;;;;;;143735;573;46010;-84
2021/05/11 03:18:12;;;;;;;3.65;2.05;;;;;;;;;;143733;692;46012;-84
2021/05/11 03:20:39;;;;;;;4.72;2.33;;;;;;;;;;143733;591;46010;-85
2021/05/11 03:23:06;;;;;;;4.45;1.98;;;;;;;;;;143735;591;46036;-83
2021/05/11 03:25:32;;;;;;;8.65;3.03;;;;;;;;;;143734;618;46010;-83
2021/05/11 03:27:59;;;;;;;4.03;2.22;;;;;;;;;;143733;579;46020;-85
2021/05/11 03:30:26;;;;;;;12.50;4.05;;;;;;;;;;143732;619;46920;-84
2021/05/11 03:32:53;;;;;;;4.97;2.08;;;;;;;;;;143731;571;47021;-85
2021/05/11 03:35:20;;;;;;;10.02;2.83;;;;;;;;;;143731;632;46010;-83
2021/05/11 03:37:48;;;;;;;11.55;2.75;;;;;;;;;;143731;589;47022;-84
2021/05/11 03:40:14;;;;;;;6.43;2.33;;;;;;;;;;143732;631;46010;-85
2021/05/11 03:42:51;;;;;;;8.10;2.40;;;;;;;;;;143733;625;46020;-84
2021/05/11 03:45:25;;;;;;;9.98;2.20;;;;;;;;;;143734;576;46011;-83
2021/05/11 03:47:54;;;;;;;5.87;2.53;;;;;;;;;;143730;572;47023;-84
2021/05/11 03:50:21;;;;;;;4.15;2.10;;;;;;;;;;143734;695;45920;-83
2021/05/11 03:52:47;;;;;;;8.07;2.92;;;;;;;;;;143731;570;47020;-83
2021/05/11 03:55:14;;;;;;;6.90;2.55;;;;;;;;;;143733;636;46010;-84
2021/05/11 03:57:41;;;;;;;10.55;2.95;;;;;;;;;;143731;592;47022;-84
2021/05/11 04:00:09;;;;;;;10.68;2.95;;;;;;;;;;143734;594;46020;-84
2021/05/11 04:02:37;;;;;;;10.57;2.30;;;;;;;;;;143732;590;47020;-84
2021/05/11 04:05:13;;;;;;;10.18;2.05;;;;;;;;;;143734;623;46012;-83
2021/05/11 04:07:51;;;;;;;9.45;2.58;;;;;;;;;;143730;591;47020;-84
2021/05/11 04:18:54;;;;;;;13.38;4.95;;;;;;;;;;143732;603;46025;-85
2021/05/11 04:21:23;;;;;;;20.95;5.18;;;;;;;;;;143731;615;46010;-83
2021/05/11 04:23:51;;;;;;;19.80;8.65;;;;;;;;;;143732;633;47021;-84
2021/05/11 04:26:18;;;;;;;26.48;11.38;;;;;;;;;;143736;571;46010;-83
2021/05/11 04:28:46;;;;;;;15.95;3.87;;;;;;;;;;143732;603;46020;-84
2021/05/11 04:31:14;;;;;;;8.15;3.05;;;;;;;;;;143731;580;46011;-83
2021/05/11 04:33:40;;;;;;;8.85;3.25;;;;;;;;;;143733;610;47020;-84
2021/05/11 04:36:07;;;;;;;9.32;4.15;;;;;;;;;;143733;587;46010;-84
2021/05/11 04:38:35;;;;;;;11.65;3.45;;;;;;;;;;143730;644;47022;-85
2021/05/11 04:41:02;;;;;;;10.77;3.67;;;;;;;;;;143733;601;47010;-83
2021/05/11 04:43:30;;;;;;;12.98;3.42;;;;;;;;;;143734;563;46020;-84
2021/05/11 04:48:50;;;;;;;10.20;3.47;;;;;;;;;;143730;587;47020;-83
2021/05/11 04:51:18;;;;;;;11.10;3.35;;;;;;;;;;143731;685;46020;-85
2021/05/11 04:53:45;;;;;;;9.15;3.00;;;;;;;;;;143733;573;47021;-84
2021/05/11 04:56:12;;;;;;;11.52;2.97;;;;;;;;;;143732;650;46010;-84
2021/05/11 04:58:39;;;;;;;5.12;2.75;;;;;;;;;;143732;664;46012;-84
2021/05/11 05:01:06;;;;;;;4.43;2.72;;;;;;;;;;143732;571;46021;-82
2021/05/11 05:03:39;;;;;;;15.07;3.60;;;;;;;;;;143735;566;46020;-83
2021/05/11 05:06:06;;;;;;;14.05;3.15;;;;;;;;;;143733;634;46020;-85
2021/05/11 05:08:32;;;;;;;16.23;2.67;;;;;;;;;;143730;565;47021;-83
2021/05/11 05:10:59;;;;;;;13.25;2.08;;;;;;;;;;143730;572;46010;-84
2021/05/11 05:13:26;;;;;;;13.98;2.42;;;;;;;;;;143733;584;47020;-83
2021/05/11 05:15:57;;;;;;;7.43;2.47;;;;;;;;;;143736;583;46021;-84
2021/05/11 05:18:27;;;;;;;4.62;2.20;;;;;;;;;;143731;564;47020;-83
2021/05/11 05:20:55;;;;;;;16.52;2.50;;;;;;;;;;143731;678;46010;-83
2021/05/11 05:23:29;;;;;;;13.73;2.83;;;;;;;;;;143732;571;47021;-83
2021/05/11 05:26:10;;;;;;;6.05;2.08;;;;;;;;;;143732;736;46018;-86
2021/05/11 05:28:38;;;;;;;7.72;2.22;;;;;;;;;;143731;594;47020;-84
2021/05/11 05:31:06;;;;;;;11.68;2.35;;;;;;;;;;143729;582;46010;-84
2021/05/11 05:33:34;;;;;;;10.80;2.65;;;;;;;;;;143734;592;46020;-84
2021/05/11 05:36:02;;;;;;;21.23;2.67;;;;;;;;;;143733;626;46010;-85
2021/05/11 05:38:30;;;;;;;12.27;2.92;;;;;;;;;;143731;626;47022;-85
2021/05/11 05:41:00;;;;;;;14.48;2.70;;;;;;;;;;143734;566;46010;-83
2021/05/11 05:43:27;;;;;;;21.25;3.10;;;;;;;;;;143735;563;46020;-84
2021/05/11 05:45:55;;;;;;;11.00;2.92;;;;;;;;;;143733;697;47010;-86
2021/05/11 05:48:23;;;;;;;9.48;2.47;;;;;;;;;;143734;588;46022;-83
2021/05/11 05:50:59;;;;;;;12.98;1.90;;;;;;;;;;143732;586;46010;-84
2021/05/11 05:53:31;;;;;;;11.65;2.80;;;;;;;;;;143735;632;46021;-84
2021/05/11 05:55:57;;;;;;;9.98;2.83;;;;;;;;;;143738;611;45047;-83
2021/05/11 05:58:32;;;;;;;10.23;4.18;;;;;;;;;;143732;610;47020;-85
2021/05/11 06:01:02;;;;;;;10.88;3.30;;;;;;;;;;143732;577;46012;-83
2021/05/11 06:03:37;;;;;;;20.12;3.10;;;;;;;;;;143733;583;46020;-82
2021/05/11 06:06:08;;;;;;;20.62;3.47;;;;;;;;;;143736;611;46011;-84
2021/05/11 06:08:40;;;;;;;9.02;2.53;;;;;;;;;;143734;570;46021;-85
2021/05/11 06:11:29;;;;;;;5.97;2.60;;;;;;;;;;143733;611;46010;-84
2021/05/11 06:19:33;;;;;;;14.60;2.33;;;;;;;;;;143734;735;46012;-86
2021/05/11 06:22:00;;;;;;;10.50;2.37;;;;;;;;;;143734;665;46010;-85
2021/05/11 06:24:27;;;;;;;4.95;2.35;;;;;;;;;;143734;566;46012;-85
2021/05/11 06:27:02;;;;;;;4.53;3.15;;;;;;;;;;143733;611;46010;-84
2021/05/11 06:29:47;;;;;;;11.40;2.25;;;;;;;;;;143731;646;46014;-84
2021/05/11 06:32:19;;;;;;;3.83;2.12;;;;;;;;;;143733;641;46010;-85
2021/05/11 06:34:58;;;;;;;8.63;2.10;;;;;;;;;;143735;570;46020;-84
2021/05/11 06:37:25;;;;;;;5.85;1.60;;;;;;;;;;143737;585;46042;-84
2021/05/11 06:39:54;;;;;;;5.35;1.98;;;;;;;;;;143732;612;47022;-85
2021/05/11 06:42:22;;;;;;;4.15;1.58;;;;;;;;;;143731;682;46012;-85
2021/05/11 06:53:47;;;;;;;6.32;1.67;;;;;;;;;;143735;575;46020;-89
2021/05/11 06:56:14;;;;;;;7.93;1.67;;;;;;;;;;143735;649;46014;-89
2021/05/11 06:58:41;;;;;;;8.80;1.95;;;;;;;;;;143734;570;46013;-90
2021/05/11 07:01:08;;;;;;;7.03;1.83;;;;;;;;;;143736;586;46020;-90
2021/05/11 07:03:34;;;;;;;8.05;2.25;;;;;;;;;;143732;679;47012;-91
2021/05/11 07:06:01;;;;;;;7.87;2.30;;;;;;;;;;143732;576;47020;-89
2021/05/11 07:08:45;;;;;;;9.57;2.15;;;;;;;;;;143735;620;46012;-92
2021/05/11 07:11:31;;;;;;;6.68;1.87;;;;;;;;;;143732;566;47022;-91
2021/05/11 07:13:58;;;;;;;5.15;2.58;;;;;;;;;;143732;645;46013;-88
2021/05/11 07:16:26;;;;;;;3.58;1.92;;;;;;;;;;143733;600;47020;-91
2021/05/11 07:18:53;;;;;;;5.93;1.48;;;;;;;;;;143735;568;46012;-92
2021/05/11 07:21:32;;;;;;;6.95;1.83;;;;;;;;;;143733;589;46046;-89
2021/05/11 07:24:02;;;;;;;5.95;1.73;;;;;;;;;;143733;595;46012;-91
2021/05/11 07:26:32;;;;;;;9.80;1.65;;;;;;;;;;143734;587;47020;-89
2021/05/11 07:29:26;;;;;;;7.57;1.30;;;;;;;;;;143736;567;46013;-92
2021/05/11 07:31:53;;;;;;;4.75;2.05;;;;;;;;;;143731;564;48020;-90
2021/05/11 07:34:20;;;;;;;6.53;1.58;;;;;;;;;;143734;582;46012;-93
2021/05/11 07:36:48;;;;;;;5.05;1.67;;;;;;;;;;143735;724;46021;-91
2021/05/11 07:39:14;;;;;;;7.20;1.60;;;;;;;;;;143735;566;46012;-91
2021/05/11 07:41:41;;;;;;;2.55;1.30;;;;;;;;;;143736;586;46020;-90
2021/05/11 07:44:08;;;;;;;7.30;1.65;;;;;;;;;;143732;574;46021;-91
2021/05/11 07:46:57;;;;;;;6.18;1.27;;;;;;;;;;143732;599;47020;-91
2021/05/11 07:49:55;;;;;;;5.12;1.58;;;;;;;;;;143734;569;46020;-90
2021/05/11 08:14:42;;;;;;;3.25;1.60;;;;;;;;;;143736;556;46044;-89
2021/05/11 08:17:09;;;;;;;5.20;1.73;;;;;;;;;;143733;643;46012;-89
2021/05/11 08:22:46;;;;;;;3.35;1.60;;;;;;;;;;143737;622;46044;-89
2021/05/11 08:28:02;;;;;;;5.75;1.80;;;;;;;;;;143734;645;46919;-89
2021/05/11 08:30:29;;;;;;;3.65;1.55;;;;;;;;;;143735;729;46020;-91
2021/05/11 08:32:55;;;;;;;2.40;0.80;;;;;;;;;;143735;576;46012;-88
2021/05/11 08:35:22;;;;;;;3.80;1.92;;;;;;;;;;143733;572;47022;-88
2021/05/11 08:37:49;;;;;;;8.68;1.45;;;;;;;;;;143732;602;46020;-89
2021/05/11 08:40:16;;;;;;;5.82;1.40;;;;;;;;;;143735;586;46020;-89
2021/05/11 08:42:44;;;;;;;8.32;1.12;;;;;;;;;;143736;626;46013;-90
2021/05/11 08:45:13;;;;;;;5.22;1.60;;;;;;;;;;143732;627;47023;-87
2021/05/11 08:47:51;;;;;;;3.87;1.95;;;;;;;;;;143734;581;46012;-89
2021/05/11 08:50:37;;;;;;;7.03;1.70;;;;;;;;;;143735;576;47020;-89
2021/05/11 08:53:25;;;;;;;5.47;1.62;;;;;;;;;;143736;651;46018;-88
2021/05/11 09:04:45;;;;;;;4.40;1.77;;;;;;;;;;143736;662;46012;-88
2021/05/11 09:30:19;;;;;;;4.07;1.67;;;;;;;;;;143736;644;46020;-89
2021/05/11 09:32:59;;;;;;;7.27;1.47;;;;;;;;;;143735;599;46012;-87
2021/05/11 09:45:16;;;;;;;5.90;1.87;;;;;;;;;;143734;581;46010;-87
2021/05/11 10:32:13;;;;;;;17.00;2.53;;;;;;;;;;143733;642;46014;-88
2021/05/11 10:44:18;;;;;;;6.47;1.75;;;;;;;;;;143736;625;46020;-85
2021/05/11 10:47:02;;;;;;;8.85;1.92;;;;;;;;;;143737;574;46014;-86
2021/05/11 10:49:40;;;;;;;5.62;2.00;;;;;;;;;;143736;571;46041;-85
2021/05/11 10:52:25;;;;;;;8.00;1.20;;;;;;;;;;143737;621;46050;-87
2021/05/11 10:58:02;;;;;;;7.25;1.70;;;;;;;;;;143738;656;46021;-84
2021/05/11 11:00:44;;;;;;;3.78;1.55;;;;;;;;;;143736;564;46020;-87
2021/05/11 11:03:30;;;;;;;7.25;1.73;;;;;;;;;;143735;576;46021;-87
2021/05/11 11:06:00;;;;;;;4.57;2.15;;;;;;;;;;143734;617;46012;-86
2021/05/11 11:08:52;;;;;;;6.03;1.37;;;;;;;;;;143736;661;46020;-86
2021/05/11 11:11:23;;;;;;;4.03;1.80;;;;;;;;;;143736;564;46012;-87
2021/05/11 11:13:52;;;;;;;10.55;1.92;;;;;;;;;;143734;743;46023;-84
2021/05/11 11:16:19;;;;;;;6.72;1.45;;;;;;;;;;143733;569;46020;-84
2021/05/11 11:18:47;;;;;;;6.97;2.10;;;;;;;;;;143736;585;46021;-84
2021/05/11 11:21:22;;;;;;;10.80;1.67;;;;;;;;;;143734;585;46021;-84
2021/05/11 11:23:55;;;;;;;4.95;1.67;;;;;;;;;;143734;631;47022;-84
2021/05/11 11:26:32;;;;;;;3.20;1.43;;;;;;;;;;143731;680;46013;-84
2021/05/11 11:29:10;;;;;;;4.78;1.10;;;;;;;;;;143735;564;46020;-83
2021/05/11 11:31:42;;;;;;;3.37;1.40;;;;;;;;;;143735;590;46012;-84
2021/05/11 11:34:16;;;;;;;2.42;1.05;;;;;;;;;;143735;575;46021;-83
2021/05/11 11:36:46;;;;;;;6.70;1.50;;;;;;;;;;143734;592;46020;-84
2021/05/11 11:39:21;;;;;;;7.57;2.15;;;;;;;;;;143734;571;46031;-84
2021/05/11 11:41:49;;;;;;;4.85;1.73;;;;;;;;;;143737;586;46013;-86
2021/05/11 11:44:19;;;;;;;7.12;1.40;;;;;;;;;;143735;698;46016;-84
2021/05/11 11:47:03;;;;;;;5.28;1.42;;;;;;;;;;143736;585;46020;-84
2021/05/11 11:49:32;;;;;;;6.03;1.50;;;;;;;;;;143736;575;46021;-84
2021/05/11 11:52:09;;;;;;;9.73;1.52;;;;;;;;;;143735;572;46012;-84
2021/05/11 11:57:54;;;;;;;3.25;1.02;;;;;;;;;;143736;586;46013;-84
2021/05/11 12:00:32;;;;;;;9.48;1.42;;;;;;;;;;143734;587;47020;-84
2021/05/11 12:03:12;;;;;;;8.70;1.58;;;;;;;;;;143736;588;46018;-82
2021/05/11 12:05:52;;;;;;;8.35;1.95;;;;;;;;;;143733;570;47023;-84
2021/05/11 12:08:29;;;;;;;6.93;1.85;;;;;;;;;;143735;587;46012;-84
2021/05/11 12:10:58;;;;;;;7.35;2.00;;;;;;;;;;143735;613;46021;-83
2021/05/11 12:13:30;;;;;;;3.87;1.55;;;;;;;;;;143735;602;46012;-84
2021/05/11 12:16:27;;;;;;;7.15;1.50;;;;;;;;;;143735;582;46020;-84
2021/05/11 12:19:06;;;;;;;4.43;1.37;;;;;;;;;;143731;570;46021;-84
2021/05/11 12:21:35;;;;;;;9.50;1.98;;;;;;;;;;143736;566;47018;-84
2021/05/11 12:24:10;;;;;;;12.95;2.05;;;;;;;;;;143736;580;47020;-84
2021/05/11 12:26:45;;;;;;;2.90;1.25;;;;;;;;;;143735;612;46021;-83
2021/05/11 12:29:14;;;;;;;5.70;1.33;;;;;;;;;;143729;577;46919;-84
2021/05/11 12:31:46;;;;;;;5.50;1.25;;;;;;;;;;143735;577;46020;-84
2021/05/11 12:34:14;;;;;;;7.32;1.42;;;;;;;;;;143733;585;46013;-85
2021/05/11 12:36:54;;;;;;;4.15;2.00;;;;;;;;;;143733;566;46023;-83
2021/05/11 12:39:38;;;;;;;6.00;1.37;;;;;;;;;;143732;605;46038;-87
2021/05/11 12:42:16;;;;;;;5.40;1.33;;;;;;;;;;143734;611;46021;-84
2021/05/11 12:44:43;;;;;;;7.80;1.40;;;;;;;;;;143732;573;46020;-87
2021/05/11 12:47:10;;;;;;;3.70;1.08;;;;;;;;;;143732;596;46913;-87
2021/05/11 12:49:37;;;;;;;3.28;1.17;;;;;;;;;;143732;589;46021;-87
2021/05/11 12:52:07;;;;;;;5.65;1.42;;;;;;;;;;143733;569;46020;-86
2021/05/11 12:54:41;;;;;;;5.05;1.60;;;;;;;;;;143734;615;46012;-87
2021/05/11 12:57:28;;;;;;;6.95;1.70;;;;;;;;;;143731;571;47020;-85
2021/05/11 13:00:09;;;;;;;7.57;1.10;;;;;;;;;;143733;581;46012;-87
2021/05/11 13:02:51;;;;;;;6.65;1.30;;;;;;;;;;143734;586;46020;-84
2021/05/11 13:17:27;;;;;;;5.53;1.67;;;;;;;;;;143731;616;47020;-86
2021/05/11 13:20:12;;;;;;;5.60;1.20;;;;;;;;;;143732;657;47023;-85
2021/05/11 13:23:04;;;;;;;3.97;1.55;;;;;;;;;;143729;574;46012;-86
2021/05/11 13:25:38;;;;;;;5.55;1.37;;;;;;;;;;143733;713;46021;-86
2021/05/11 13:28:15;;;;;;;4.97;1.33;;;;;;;;;;143734;581;46012;-85
2021/05/11 13:31:01;;;;;;;9.93;1.77;;;;;;;;;;143730;592;47022;-86
2021/05/11 13:33:42;;;;;;;3.92;1.20;;;;;;;;;;143731;570;46013;-86
2021/05/11 13:36:09;;;;;;;6.12;1.42;;;;;;;;;;143733;611;47020;-86
2021/05/11 13:38:35;;;;;;;6.22;1.45;;;;;;;;;;143733;579;46012;-85
2021/05/11 13:41:02;;;;;;;5.43;1.70;;;;;;;;;;143732;613;47021;-85
2021/05/11 13:43:29;;;;;;;4.53;1.60;;;;;;;;;;143732;670;46012;-86
2021/05/11 13:45:55;;;;;;;5.37;1.23;;;;;;;;;;143734;568;46048;-87
2021/05/11 13:48:32;;;;;;;4.45;1.62;;;;;;;;;;143734;631;47021;-86
2021/05/11 13:51:03;;;;;;;10.88;1.52;;;;;;;;;;143732;638;46023;-85
2021/05/11 13:53:34;;;;;;;3.67;1.12;;;;;;;;;;143730;563;46012;-85
2021/05/11 14:04:23;;;;;;;2.42;1.17;;;;;;;;;;143730;596;46919;-85
2021/05/11 14:06:50;;;;;;;2.53;0.95;;;;;;;;;;143733;581;47020;-85
2021/05/11 14:09:17;;;;;;;4.43;1.30;;;;;;;;;;143735;600;46040;-85
2021/05/11 14:11:44;;;;;;;7.32;1.70;;;;;;;;;;143734;716;46022;-84
2021/05/11 14:14:15;;;;;;;6.07;1.73;;;;;;;;;;143730;573;46012;-85
2021/05/11 14:16:42;;;;;;;4.20;1.02;;;;;;;;;;143733;583;47020;-85
2021/05/11 14:19:10;;;;;;;2.55;1.30;;;;;;;;;;143732;601;46013;-85
2021/05/11 14:21:37;;;;;;;4.55;1.52;;;;;;;;;;143733;575;46020;-86
2021/05/11 14:24:04;;;;;;;4.28;1.48;;;;;;;;;;143732;580;46012;-84
2021/05/11 14:26:34;;;;;;;4.03;1.25;;;;;;;;;;143734;597;46048;-85
2021/05/11 14:29:00;;;;;;;7.32;1.08;;;;;;;;;;143736;588;46012;-85
2021/05/11 14:31:27;;;;;;;10.38;1.30;;;;;;;;;;143732;563;47022;-85
2021/05/11 14:33:54;;;;;;;2.83;1.08;;;;;;;;;;143733;611;46021;-85
2021/05/11 14:36:22;;;;;;;9.60;1.25;;;;;;;;;;143734;583;46020;-85
2021/05/11 14:38:51;;;;;;;7.20;1.30;;;;;;;;;;143735;565;46012;-82
2021/05/11 14:41:23;;;;;;;2.85;1.50;;;;;;;;;;143737;587;45022;-85
2021/05/11 14:44:01;;;;;;;;;;;;;;;;;;143741;980;45020;-88
2021/05/11 14:46:30;;;;;;;3.85;1.55;;;;;;;;;;143745;566;46020;-81
2021/05/11 14:49:01;;;;;;;3.20;1.60;;;;;;;;;;143736;649;46021;-83
2021/05/11 14:51:28;;;;;;;7.37;1.75;;;;;;;;;;143733;566;47022;-84
2021/05/11 14:53:54;;;;;;;4.45;1.17;;;;;;;;;;143730;577;46010;-85
2021/05/11 14:56:22;;;;;;;4.97;1.42;;;;;;;;;;143734;577;46021;-85
2021/05/11 14:58:50;;;;;;;7.90;1.60;;;;;;;;;;143735;611;46010;-86
2021/05/11 15:01:21;;;;;;;3.35;1.12;;;;;;;;;;143732;611;47012;-84
2021/05/11 15:03:49;;;;;;;6.37;1.42;;;;;;;;;;143731;600;46010;-87
2021/05/11 15:06:18;;;;;;;9.95;1.80;;;;;;;;;;143733;610;47020;-86
2021/05/11 15:08:56;;;;;;;6.47;1.10;;;;;;;;;;143733;675;47019;-85
2021/05/11 15:11:38;;;;;;;3.58;1.58;;;;;;;;;;143731;581;47023;-85
2021/05/11 15:14:21;;;;;;;2.58;1.00;;;;;;;;;;143732;585;46020;-86
2021/05/11 15:20:10;;;;;;;6.32;1.37;;;;;;;;;;143733;575;46045;-85
2021/05/11 15:22:42;;;;;;;5.53;1.37;;;;;;;;;;143731;657;46012;-82
2021/05/11 15:25:10;;;;;;;5.57;1.48;;;;;;;;;;143732;569;46010;-84
2021/05/11 15:27:36;;;;;;;6.78;2.30;;;;;;;;;;143733;591;46012;-84
2021/05/11 15:30:07;;;;;;;9.95;2.75;;;;;;;;;;143736;593;46010;-85
2021/05/11 15:32:54;;;;;;;5.22;1.67;;;;;;;;;;143731;566;47022;-85
2021/05/11 15:35:29;;;;;;;11.85;1.98;;;;;;;;;;143731;587;46010;-85
2021/05/11 15:37:59;;;;;;;6.32;1.92;;;;;;;;;;143734;622;46020;-86
2021/05/11 15:40:31;;;;;;;5.00;1.50;;;;;;;;;;143734;608;46020;-85
2021/05/11 15:42:58;;;;;;;4.68;1.42;;;;;;;;;;143733;661;46022;-86
2021/05/11 15:45:26;;;;;;;6.40;1.33;;;;;;;;;;143733;601;46020;-85
2021/05/11 15:47:53;;;;;;;10.02;1.50;;;;;;;;;;143733;591;46021;-84
2021/05/11 15:50:25;;;;;;;10.40;2.50;;;;;;;;;;143735;607;46010;-85
2021/05/11 15:52:53;;;;;;;4.37;1.17;;;;;;;;;;143732;569;47022;-86
2021/05/11 15:55:21;;;;;;;5.97;1.25;;;;;;;;;;143731;575;46010;-85
2021/05/11 15:57:49;;;;;;;6.45;1.48;;;;;;;;;;143734;666;46020;-85
2021/05/11 16:00:17;;;;;;;6.22;1.48;;;;;;;;;;143735;621;46010;-86
2021/05/11 16:02:45;;;;;;;6.35;1.87;;;;;;;;;;143731;583;47023;-85
2021/05/11 16:05:12;;;;;;;8.48;2.37;;;;;;;;;;143733;665;46020;-84
2021/05/11 16:07:41;;;;;;;4.72;2.12;;;;;;;;;;143732;608;47020;-84
2021/05/11 16:10:09;;;;;;;5.43;1.80;;;;;;;;;;143733;593;47020;-84
2021/05/11 16:12:37;;;;;;;4.32;1.77;;;;;;;;;;143732;604;47023;-85
2021/05/11 16:15:14;;;;;;;8.88;1.90;;;;;;;;;;143733;569;46010;-84
2021/05/11 16:18:00;;;;;;;9.00;1.95;;;;;;;;;;143732;633;47021;-87
2021/05/11 16:20:27;;;;;;;6.70;1.90;;;;;;;;;;143737;661;46020;-83
2021/05/11 16:22:54;;;;;;;9.68;1.62;;;;;;;;;;143733;600;46020;-82
2021/05/11 16:25:23;;;;;;;9.30;2.28;;;;;;;;;;143732;660;46011;-85
2021/05/11 16:27:50;;;;;;;8.43;2.17;;;;;;;;;;143733;583;46012;-85
2021/05/11 16:30:18;;;;;;;5.20;1.95;;;;;;;;;;143735;565;46010;-85
2021/05/11 16:32:45;;;;;;;6.30;1.42;;;;;;;;;;143731;679;46021;-84
2021/05/11 16:35:13;;;;;;;4.90;1.70;;;;;;;;;;143731;639;46010;-86
2021/05/11 16:37:41;;;;;;;10.57;2.35;;;;;;;;;;143735;582;46020;-86
2021/05/11 16:40:09;;;;;;;6.03;2.12;;;;;;;;;;143734;645;47021;-85
2021/05/11 16:42:36;;;;;;;8.15;1.70;;;;;;;;;;143732;579;47020;-85
2021/05/11 16:45:09;;;;;;;5.50;1.58;;;;;;;;;;143732;761;46010;-86
2021/05/11 16:48:01;;;;;;;6.68;1.67;;;;;;;;;;143732;688;47021;-85
2021/05/11 16:50:33;;;;;;;10.82;1.60;;;;;;;;;;143735;652;46018;-85
2021/05/11 16:53:02;;;;;;;5.32;1.30;;;;;;;;;;143730;563;47022;-85
2021/05/11 16:55:31;;;;;;;7.87;1.77;;;;;;;;;;143731;622;46010;-84
2021/05/11 16:57:58;;;;;;;12.00;1.60;;;;;;;;;;143732;648;47020;-86
2021/05/11 17:00:27;;;;;;;7.15;1.80;;;;;;;;;;143733;573;46018;-84
2021/05/11 17:02:53;;;;;;;8.07;1.77;;;;;;;;;;143732;708;46023;-84
2021/05/11 17:05:21;;;;;;;7.65;1.70;;;;;;;;;;143731;572;46010;-84
2021/05/11 17:07:49;;;;;;;5.57;1.75;;;;;;;;;;143733;565;46020;-86
2021/05/11 17:10:16;;;;;;;6.85;1.95;;;;;;;;;;143734;669;46021;-85
2021/05/11 17:12:43;;;;;;;9.43;1.87;;;;;;;;;;143731;693;47022;-84
2021/05/11 17:15:10;;;;;;;8.90;1.98;;;;;;;;;;143732;604;47021;-83
2021/05/11 17:17:40;;;;;;;15.40;2.60;;;;;;;;;;143732;575;47021;-87
2021/05/11 17:20:08;;;;;;;4.97;1.65;;;;;;;;;;143734;582;46010;-86
2021/05/11 17:22:35;;;;;;;4.82;1.42;;;;;;;;;;143732;585;47022;-85
2021/05/11 17:25:02;;;;;;;13.18;1.37;;;;;;;;;;143730;612;46011;-84
2021/05/11 17:27:30;;;;;;;6.37;2.03;;;;;;;;;;143732;611;47020;-84
2021/05/11 17:30:02;;;;;;;5.35;1.50;;;;;;;;;;143733;629;46020;-85
2021/05/11 17:32:30;;;;;;;4.82;1.73;;;;;;;;;;143730;663;47023;-85
2021/05/11 17:34:57;;;;;;;5.40;1.65;;;;;;;;;;143732;580;46012;-84
2021/05/11 17:37:25;;;;;;;9.45;2.10;;;;;;;;;;143732;572;47020;-86
2021/05/11 17:39:52;;;;;;;4.87;1.83;;;;;;;;;;143734;564;46010;-86
2021/05/11 17:42:18;;;;;;;4.75;1.60;;;;;;;;;;143731;616;46012;-87
2021/05/11 17:44:46;;;;;;;7.32;1.80;;;;;;;;;;143733;573;46010;-88
2021/05/11 17:47:13;;;;;;;7.95;2.80;;;;;;;;;;143733;595;47021;-86
2021/05/11 17:49:41;;;;;;;6.43;1.55;;;;;;;;;;143733;596;46010;-87
2021/05/11 17:52:08;;;;;;;9.90;2.58;;;;;;;;;;143729;592;47020;-87
2021/05/11 17:54:35;;;;;;;9.32;2.15;;;;;;;;;;143734;613;46021;-85
2021/05/11 17:57:02;;;;;;;11.73;2.47;;;;;;;;;;143732;611;47020;-86
2021/05/11 17:59:28;;;;;;;6.85;2.03;;;;;;;;;;143736;602;45023;-86
2021/05/11 18:01:57;;;;;;;8.15;1.40;;;;;;;;;;143733;587;46022;-86
2021/05/11 18:04:25;;;;;;;5.12;1.80;;;;;;;;;;143732;588;46010;-86
2021/05/11 18:06:55;;;;;;;5.28;1.48;;;;;;;;;;143734;597;46012;-86
2021/05/11 18:09:21;;;;;;;7.60;2.12;;;;;;;;;;143735;564;46010;-87
2021/05/11 18:11:50;;;;;;;7.35;1.87;;;;;;;;;;143734;564;46020;-87
2021/05/11 18:14:16;;;;;;;4.80;2.00;;;;;;;;;;143730;595;46010;-86
2021/05/11 18:16:46;;;;;;;6.12;1.75;;;;;;;;;;143735;570;46021;-86
2021/05/11 18:19:13;;;;;;;4.90;1.40;;;;;;;;;;143732;596;46010;-86
2021/05/11 18:21:41;;;;;;;6.40;2.22;;;;;;;;;;143731;564;47022;-86
2021/05/11 18:24:08;;;;;;;11.50;2.10;;;;;;;;;;143733;605;46919;-86
2021/05/11 18:26:35;;;;;;;7.85;1.70;;;;;;;;;;143734;667;46020;-86
2021/05/11 18:29:05;;;;;;;13.57;2.20;;;;;;;;;;143735;669;46010;-87
2021/05/11 18:31:31;;;;;;;10.82;1.92;;;;;;;;;;143731;606;47022;-86
2021/05/11 18:33:58;;;;;;;10.43;2.05;;;;;;;;;;143732;594;46010;-86
2021/05/11 18:36:40;;;;;;;16.27;2.50;;;;;;;;;;143735;593;46020;-88
2021/05/11 18:39:23;;;;;;;13.88;2.55;;;;;;;;;;143734;600;46011;-83
2021/05/11 18:41:55;;;;;;;20.92;3.30;;;;;;;;;;143734;592;46023;-85
2021/05/11 18:44:23;;;;;;;12.18;2.50;;;;;;;;;;143735;569;46020;-86
2021/05/11 18:46:54;;;;;;;11.77;3.75;;;;;;;;;;143736;572;46021;-85
2021/05/11 18:49:22;;;;;;;7.32;3.30;;;;;;;;;;143735;571;46010;-84
2021/05/11 18:51:52;;;;;;;7.87;4.20;;;;;;;;;;143731;592;47022;-85